Las horas y fechas están en horario UTC
Sumar 1 hora en el horario de Invierno y 2 horas en el de Verano

Informes METAR cercanos

 

LEZL - Sevilla (civ/Mil, Spain
Distance from station: NNE 24km
Actualización: 16/11/2019 01:30
Despejado
Despejado
 Viento del ONO
Viento: ONO 7 km/h
Temperatura: 7°C
Wind Chill: 6°C
Rocío: 0°C
Humedad: 61%
Barómetro: 1011 hPa
Resumen: Despejado
Visibility: greater than 10 km
2019/11/16 00:30 LEZL 160030Z AUTO 29004KT CAVOK 07/M00 Q1011
LEMO - Moron (sp-Usafb), Spain
Distance from station: E 38km
Actualización: 16/11/2019 02:00
Parcialmente nuboso
Parcialmente nuboso
 Viento del SSO
Viento: SSO 11 km/h
Temperatura: 4°C
Wind Chill: 1°C
Rocío: 0°C
Humedad: 75%
Barómetro: 1012 hPa
Clouds: Parcialmente nuboso
Visibility: 10 km
Cloud details: Parcialmente nuboso 1829 m
2019/11/16 01:00 LEMO 160100Z 21006KT 9999 SCT060 04/00 Q1012 NOSIG
LEJR - Jerez (civ/Mil), Spain
Distance from station: S 53km
Actualización: 16/11/2019 01:30
Despejado
Despejado
 Viento del ONO
Viento: ONO 15 km/h
Temperatura: 7°C
Wind Chill: 4°C
Rocío: 1°C
Humedad: 66%
Barómetro: 1012 hPa
Clouds: Despejado
Visibility: 10 km
2019/11/16 00:30 LEJR 160030Z AUTO 30008KT 260V330 9999 NCD 07/01 Q1012
 
LERT - Rota Naval Stati, Spain
Distance from station: SSO 71km
Actualización: 16/11/2019 01:00
Few Clouds
Few Clouds
 Viento del NO
Viento: NO 19 km/h
Temperatura: 10°C
Wind Chill: 7°C
Rocío: 2°C
Humedad: 58%
Barómetro: 1012 hPa
Clouds: Few Clouds
Visibility: 10 km
Cloud details: Few Clouds 1067 m
2019/11/16 00:00 LERT 160000Z 32010KT 290V350 9999 FEW035 10/02 Q1012 NOSIG
LEBA - Cordoba Airport, Spain
Distance from station: ENE 128km
Actualización: 16/11/2019 01:30
Despejado
Despejado
 Viento del OSO
Viento: OSO 2 km/h
Temperatura: 1°C
Rocío: 0°C
Humedad: 93%
Barómetro: 1011 hPa
Clouds: Despejado
Visibility: 10 km
2019/11/16 00:30 LEBA 160030Z AUTO 24001KT 9999 NCD 01/M00 Q1011
LXGB - Gibraltar (civ/M, Gibraltar
Distance from station: SSE 137km
Actualización: 16/11/2019 00:50
Muy nuboso
Muy nuboso
 Viento del ONO
Viento: ONO 19 km/h
Temperatura: 11°C
Rocío: 3°C
Humedad: 58%
Barómetro: 1011 hPa
Clouds: Muy nuboso
Visibility: 10 km
Cloud details: Muy nuboso 4267 m
2019/11/15 23:50 LXGB 152350Z AUTO 29010KT 9999 // BKN140/// 11/03 Q1011
 
LEMG - Malaga (civ/Mil), Spain
Distance from station: ESE 150km
Actualización: 16/11/2019 01:30
Few Clouds
Few Clouds
 Viento del NO
Viento: NO 11 km/h
Temperatura: 7°C
Wind Chill: 5°C
Rocío: 2°C
Humedad: 71%
Barómetro: 1010 hPa
Clouds: Few Clouds
Visibility: 10 km
Cloud details: Few Clouds 1981 m
2019/11/16 00:30 LEMG 160030Z 31006KT 9999 FEW065 07/02 Q1010 NOSIG
GMTT - Tangier/Boukhalf, Morocco
Distance from station: S 169km
Actualización: 16/11/2019 01:30
Muy nuboso
Muy nuboso
 Viento del ONO
Viento: ONO 19 km/h
Temperatura: 12°C
Rocío: 3°C
Humedad: 54%
Barómetro: 1012 hPa
Clouds: Muy nuboso
Visibility: 10 km
Cloud details: Muy nuboso 1524 m
2019/11/16 00:30 GMTT 160030Z 30010KT 9999 BKN050 12/03 Q1012 NOSIG
LPFR - Faro, Portugal
Distance from station: O 172km
Actualización: 16/11/2019 01:30
Despejado
Despejado
 Viento del ONO
Viento: ONO 13 km/h
Temperatura: 9°C
Wind Chill: 7°C
Rocío: 3°C
Humedad: 66%
Barómetro: 1014 hPa
Resumen: Despejado
Visibility: greater than 10 km
2019/11/16 00:30 LPFR 160030Z 29007KT CAVOK 09/03 Q1014
 
LPBJ - Beja (por/Ger-Af, Portugal
Distance from station: ONO 192km
Actualización: 16/11/2019 01:00
Despejado
Despejado
 Viento del NO
Viento: NO 19 km/h
Temperatura: 5°C
Wind Chill: 1°C
Rocío: 3°C
Humedad: 87%
Barómetro: 1013 hPa
Resumen: Despejado
Visibility: greater than 10 km
2019/11/16 00:00 LPBJ 160000Z 31010KT CAVOK 05/03 Q1013
LEBZ - Talavera Ab/Bada, Spain
Distance from station: NNO 194km
Actualización: 15/11/2019 21:00
NOT Current
Despejado
Despejado
 Viento del ONO
Viento: ONO 15 km/h
Temperatura: 8°C
Wind Chill: 5°C
Rocío: 1°C
Humedad: 62%
Barómetro: 1010 hPa
Resumen: Despejado
Visibility: greater than 10 km
2019/11/15 20:00 LEBZ 152000Z 29008KT CAVOK 08/01 Q1010
LEMD - Madrid/Barajas, Spain
Distance from station: NE 415km
Actualización: 16/11/2019 01:30
Few Clouds
Few Clouds
 Viento del NNO
Viento: NNO 6 km/h
Temperatura: 4°C
Rocío: 0°C
Humedad: 75%
Barómetro: 1008 hPa
Clouds: Few Clouds
Visibility: 10 km
Cloud details: Few Clouds 1829 m
2019/11/16 00:30 LEMD 160030Z 34003KT 310V010 9999 FEW060 04/M00 Q1008 NOSIG